Seabourn Pride — C6FR5 — position and weather

sailwx.info

Track history (hours):
 
Tides and Currents Weather Stations Pressure Air Temp Water Temp Dewpoint Dewpoint Depression Visibility Wind Speed Wind Dir Waves Ship Positions

Seabourn Pride

Operator: Cunard Seabourn

Last reported at 2018-Dec-10 10:51 UTC. Time now 2018-Dec-11 07:45 UTC.
Position N 17°54' W 062°53'.

Length 134 m; draft 5.7 m.

Type: Passenger vessel. MMSI: 311084000.

Date/timePositionNaut miles runAvg speedWind from/ knotsBaromVisibWave heightAir tempDewpointWater temp
2018-Dec-10 10:51N 17°54' W 062°53'3 7.5
2018-Dec-10 10:25N 17°54' W 062°56'4 7.3
2018-Dec-10 09:53N 17°54' W 063°00'4 8.9
2018-Dec-10 09:27N 17°54' W 063°04'5 8.9
2018-Dec-10 08:53N 17°55' W 063°09'5 8.9
2018-Dec-10 08:22N 17°56' W 063°14'4 8.9
2018-Dec-10 07:55N 17°57' W 063°18'4 8.9
2018-Dec-10 07:30N 17°57' W 063°22'5 8.9
2018-Dec-10 06:59N 17°58' W 063°27'4 8.8
2018-Dec-10 06:30N 17°59' W 063°31'5 8.9
2018-Dec-10 05:58N 17°60' W 063°36'70 9.7
2018-Dec-09 22:45N 18°13' W 064°49'311.6
2018-Dec-09 22:29N 18°15' W 064°51'  
2018-Dec-07 17:41N 17°51' W 063°35'213.2
2018-Dec-07 17:30N 17°50' W 063°33'713.2
2018-Dec-07 16:57N 17°47' W 063°26'713.4
2018-Dec-07 16:26N 17°44' W 063°19'613.3
2018-Dec-07 15:57N 17°41' W 063°13'612.3
2018-Dec-07 15:29N 17°37' W 063°09'712.7
2018-Dec-07 14:54N 17°31' W 063°05'512.8
2018-Dec-07 14:29N 17°27' W 063°02'712.2
2018-Dec-07 13:57N 17°21' W 062°58'612.9
2018-Dec-07 13:27N 17°16' W 062°54'3912.8
2018-Dec-07 10:26N 16°43' W 062°33'  
2018-Dec-01 01:48N 18°37' W 064°58'2 7.2
2018-Dec-01 01:29N 18°37' W 064°56'3 7.3
2018-Dec-01 01:00N 18°37' W 064°52'7 7.4
2018-Dec-01 00:01N 18°36' W 064°45'1 7.2
2018-Nov-30 23:54N 18°36' W 064°44'4 7.3
2018-Nov-30 23:24N 18°35' W 064°40'3 7.1
2018-Nov-30 22:58N 18°35' W 064°37'3 6.4
2018-Nov-30 22:29N 18°33' W 064°34'9 0.8
2018-Nov-30 10:51N 18°27' W 064°27'  
Track history (hours):
 
Tides and Currents Weather Stations Pressure Air Temp Water Temp Dewpoint Dewpoint Depression Visibility Wind Speed Wind Dir Waves Ship Positions

Seabourn Pride

Operator: Cunard Seabourn

Last reported at 2018-Dec-10 10:51 UTC. Time now 2018-Dec-11 07:45 UTC.
Position N 17°54' W 062°53'.

Length 134 m; draft 5.7 m.

Type: Passenger vessel. MMSI: 311084000.

Date/timePositionNaut miles runAvg speedWind from/ knotsBaromVisibWave heightAir tempDewpointWater temp
2018-Dec-10 10:51N 17°54' W 062°53'3 7.5
2018-Dec-10 10:25N 17°54' W 062°56'4 7.3
2018-Dec-10 09:53N 17°54' W 063°00'4 8.9
2018-Dec-10 09:27N 17°54' W 063°04'5 8.9
2018-Dec-10 08:53N 17°55' W 063°09'5 8.9
2018-Dec-10 08:22N 17°56' W 063°14'4 8.9
2018-Dec-10 07:55N 17°57' W 063°18'4 8.9
2018-Dec-10 07:30N 17°57' W 063°22'5 8.9
2018-Dec-10 06:59N 17°58' W 063°27'4 8.8
2018-Dec-10 06:30N 17°59' W 063°31'5 8.9
2018-Dec-10 05:58N 17°60' W 063°36'70 9.7
2018-Dec-09 22:45N 18°13' W 064°49'311.6
2018-Dec-09 22:29N 18°15' W 064°51'  
2018-Dec-07 17:41N 17°51' W 063°35'213.2
2018-Dec-07 17:30N 17°50' W 063°33'713.2
2018-Dec-07 16:57N 17°47' W 063°26'713.4
2018-Dec-07 16:26N 17°44' W 063°19'613.3
2018-Dec-07 15:57N 17°41' W 063°13'612.3
2018-Dec-07 15:29N 17°37' W 063°09'712.7
2018-Dec-07 14:54N 17°31' W 063°05'512.8
2018-Dec-07 14:29N 17°27' W 063°02'712.2
2018-Dec-07 13:57N 17°21' W 062°58'612.9
2018-Dec-07 13:27N 17°16' W 062°54'3912.8
2018-Dec-07 10:26N 16°43' W 062°33'  
2018-Dec-01 01:48N 18°37' W 064°58'2 7.2
2018-Dec-01 01:29N 18°37' W 064°56'3 7.3
2018-Dec-01 01:00N 18°37' W 064°52'7 7.4
2018-Dec-01 00:01N 18°36' W 064°45'1 7.2
2018-Nov-30 23:54N 18°36' W 064°44'4 7.3
2018-Nov-30 23:24N 18°35' W 064°40'3 7.1
2018-Nov-30 22:58N 18°35' W 064°37'3 6.4
2018-Nov-30 22:29N 18°33' W 064°34'9 0.8
2018-Nov-30 10:51N 18°27' W 064°27'  

Dump ship's entire track history